sensor_id;sensor_type;location;lat;lon;timestamp;temperature;humidity
37456;DHT22;23316;50.718;7.328;2023-03-15T00:00:54;7.10;50.20
37456;DHT22;23316;50.718;7.328;2023-03-15T00:03:22;7.10;50.30
37456;DHT22;23316;50.718;7.328;2023-03-15T00:05:50;7.10;50.30
37456;DHT22;23316;50.718;7.328;2023-03-15T00:08:20;7.10;50.30
37456;DHT22;23316;50.718;7.328;2023-03-15T00:10:49;7.10;50.40
37456;DHT22;23316;50.718;7.328;2023-03-15T00:13:16;7.10;50.40
37456;DHT22;23316;50.718;7.328;2023-03-15T00:15:45;7.10;50.40
37456;DHT22;23316;50.718;7.328;2023-03-15T00:18:13;7.10;50.40
37456;DHT22;23316;50.718;7.328;2023-03-15T00:20:41;7.10;50.50
37456;DHT22;23316;50.718;7.328;2023-03-15T00:23:09;7.00;50.50
37456;DHT22;23316;50.718;7.328;2023-03-15T00:25:36;7.00;50.60
37456;DHT22;23316;50.718;7.328;2023-03-15T00:28:05;7.00;50.60
37456;DHT22;23316;50.718;7.328;2023-03-15T00:30:32;7.00;50.60
37456;DHT22;23316;50.718;7.328;2023-03-15T00:33:00;7.00;50.60
37456;DHT22;23316;50.718;7.328;2023-03-15T00:35:30;7.00;50.60
37456;DHT22;23316;50.718;7.328;2023-03-15T00:37:59;7.00;50.50
37456;DHT22;23316;50.718;7.328;2023-03-15T00:40:26;7.00;50.60
37456;DHT22;23316;50.718;7.328;2023-03-15T00:42:53;7.00;51.10
37456;DHT22;23316;50.718;7.328;2023-03-15T00:45:23;7.00;50.70
37456;DHT22;23316;50.718;7.328;2023-03-15T00:47:52;7.00;50.80
37456;DHT22;23316;50.718;7.328;2023-03-15T00:50:21;7.00;50.80
37456;DHT22;23316;50.718;7.328;2023-03-15T00:52:49;7.00;50.90
37456;DHT22;23316;50.718;7.328;2023-03-15T00:55:18;7.00;50.90
37456;DHT22;23316;50.718;7.328;2023-03-15T00:57:46;7.00;50.90
37456;DHT22;23316;50.718;7.328;2023-03-15T01:00:16;7.00;51.00
37456;DHT22;23316;50.718;7.328;2023-03-15T01:02:46;7.00;51.10
37456;DHT22;23316;50.718;7.328;2023-03-15T01:05:14;7.00;51.10
37456;DHT22;23316;50.718;7.328;2023-03-15T01:07:41;7.00;51.10
37456;DHT22;23316;50.718;7.328;2023-03-15T01:10:11;7.00;51.10
37456;DHT22;23316;50.718;7.328;2023-03-15T01:12:39;7.00;51.10
37456;DHT22;23316;50.718;7.328;2023-03-15T01:15:07;7.10;51.20
37456;DHT22;23316;50.718;7.328;2023-03-15T01:17:36;7.10;51.10
37456;DHT22;23316;50.718;7.328;2023-03-15T01:20:06;7.10;51.20
37456;DHT22;23316;50.718;7.328;2023-03-15T01:22:34;7.10;51.20
37456;DHT22;23316;50.718;7.328;2023-03-15T01:25:01;7.10;51.20
37456;DHT22;23316;50.718;7.328;2023-03-15T01:27:28;7.00;51.20
37456;DHT22;23316;50.718;7.328;2023-03-15T01:29:56;7.10;51.30
37456;DHT22;23316;50.718;7.328;2023-03-15T01:32:23;7.10;51.30
37456;DHT22;23316;50.718;7.328;2023-03-15T01:34:50;7.10;51.40
37456;DHT22;23316;50.718;7.328;2023-03-15T01:37:19;7.10;51.50
37456;DHT22;23316;50.718;7.328;2023-03-15T01:39:49;7.10;51.50
37456;DHT22;23316;50.718;7.328;2023-03-15T01:42:16;7.10;51.60
37456;DHT22;23316;50.718;7.328;2023-03-15T01:44:49;7.10;51.60
37456;DHT22;23316;50.718;7.328;2023-03-15T01:47:17;7.10;51.70
37456;DHT22;23316;50.718;7.328;2023-03-15T01:49:47;7.10;51.80
37456;DHT22;23316;50.718;7.328;2023-03-15T01:52:20;7.10;51.80
37456;DHT22;23316;50.718;7.328;2023-03-15T01:54:52;7.10;51.90
37456;DHT22;23316;50.718;7.328;2023-03-15T01:57:23;7.10;52.00
37456;DHT22;23316;50.718;7.328;2023-03-15T01:59:55;7.10;52.00
37456;DHT22;23316;50.718;7.328;2023-03-15T02:02:25;7.10;52.00
37456;DHT22;23316;50.718;7.328;2023-03-15T02:04:57;7.10;52.10
37456;DHT22;23316;50.718;7.328;2023-03-15T02:07:28;7.10;52.30
37456;DHT22;23316;50.718;7.328;2023-03-15T02:10:02;7.20;52.40
37456;DHT22;23316;50.718;7.328;2023-03-15T02:12:32;7.20;52.30
37456;DHT22;23316;50.718;7.328;2023-03-15T02:15:03;7.20;52.40
37456;DHT22;23316;50.718;7.328;2023-03-15T02:17:34;7.20;52.40
37456;DHT22;23316;50.718;7.328;2023-03-15T02:20:11;7.20;52.40
37456;DHT22;23316;50.718;7.328;2023-03-15T02:22:48;7.20;52.30
37456;DHT22;23316;50.718;7.328;2023-03-15T02:25:21;7.20;52.30
37456;DHT22;23316;50.718;7.328;2023-03-15T02:27:54;7.20;52.40
37456;DHT22;23316;50.718;7.328;2023-03-15T02:30:22;7.30;52.40
37456;DHT22;23316;50.718;7.328;2023-03-15T02:32:49;7.20;52.50
37456;DHT22;23316;50.718;7.328;2023-03-15T02:35:23;7.20;53.00
37456;DHT22;23316;50.718;7.328;2023-03-15T02:37:50;7.30;52.60
37456;DHT22;23316;50.718;7.328;2023-03-15T02:40:21;7.30;52.60
37456;DHT22;23316;50.718;7.328;2023-03-15T02:42:52;7.30;52.60
37456;DHT22;23316;50.718;7.328;2023-03-15T02:45:22;7.30;52.60
37456;DHT22;23316;50.718;7.328;2023-03-15T02:47:50;7.30;52.60
37456;DHT22;23316;50.718;7.328;2023-03-15T02:50:17;7.30;52.60
37456;DHT22;23316;50.718;7.328;2023-03-15T02:52:45;7.30;52.70
37456;DHT22;23316;50.718;7.328;2023-03-15T02:55:12;7.30;52.80
37456;DHT22;23316;50.718;7.328;2023-03-15T02:57:39;7.30;52.80
37456;DHT22;23316;50.718;7.328;2023-03-15T03:00:07;7.30;52.90
37456;DHT22;23316;50.718;7.328;2023-03-15T03:02:41;7.30;52.90
37456;DHT22;23316;50.718;7.328;2023-03-15T03:05:09;7.30;52.90
37456;DHT22;23316;50.718;7.328;2023-03-15T03:07:37;7.30;53.00
37456;DHT22;23316;50.718;7.328;2023-03-15T03:10:05;7.30;53.10
37456;DHT22;23316;50.718;7.328;2023-03-15T03:12:33;7.30;53.20
37456;DHT22;23316;50.718;7.328;2023-03-15T03:15:00;7.30;53.20
37456;DHT22;23316;50.718;7.328;2023-03-15T03:17:29;7.30;53.30
37456;DHT22;23316;50.718;7.328;2023-03-15T03:19:58;7.30;53.40
37456;DHT22;23316;50.718;7.328;2023-03-15T03:22:26;7.30;53.40
37456;DHT22;23316;50.718;7.328;2023-03-15T03:24:53;7.20;53.30
37456;DHT22;23316;50.718;7.328;2023-03-15T03:27:20;7.20;54.00
37456;DHT22;23316;50.718;7.328;2023-03-15T03:29:48;7.10;53.50
37456;DHT22;23316;50.718;7.328;2023-03-15T03:32:15;7.10;53.60
37456;DHT22;23316;50.718;7.328;2023-03-15T03:34:42;7.10;53.70
37456;DHT22;23316;50.718;7.328;2023-03-15T03:37:16;7.10;53.80
37456;DHT22;23316;50.718;7.328;2023-03-15T03:39:43;7.00;54.00
37456;DHT22;23316;50.718;7.328;2023-03-15T03:42:11;7.00;54.10
37456;DHT22;23316;50.718;7.328;2023-03-15T03:44:42;6.90;54.20
37456;DHT22;23316;50.718;7.328;2023-03-15T03:47:09;6.90;54.30
37456;DHT22;23316;50.718;7.328;2023-03-15T03:49:37;6.90;54.40
37456;DHT22;23316;50.718;7.328;2023-03-15T03:52:04;6.90;54.50
37456;DHT22;23316;50.718;7.328;2023-03-15T03:54:33;6.80;54.50
37456;DHT22;23316;50.718;7.328;2023-03-15T03:57:00;6.80;54.70
37456;DHT22;23316;50.718;7.328;2023-03-15T03:59:28;6.70;54.70
37456;DHT22;23316;50.718;7.328;2023-03-15T04:01:55;6.70;54.70
37456;DHT22;23316;50.718;7.328;2023-03-15T04:04:22;6.60;54.70
37456;DHT22;23316;50.718;7.328;2023-03-15T04:06:51;6.60;54.90
37456;DHT22;23316;50.718;7.328;2023-03-15T04:09:19;6.60;55.00
37456;DHT22;23316;50.718;7.328;2023-03-15T04:11:51;6.50;55.00
37456;DHT22;23316;50.718;7.328;2023-03-15T04:14:18;6.50;55.10
37456;DHT22;23316;50.718;7.328;2023-03-15T04:16:45;6.50;55.20
37456;DHT22;23316;50.718;7.328;2023-03-15T04:19:12;6.50;55.30
37456;DHT22;23316;50.718;7.328;2023-03-15T04:21:40;6.50;55.30
37456;DHT22;23316;50.718;7.328;2023-03-15T04:24:12;6.50;55.40
37456;DHT22;23316;50.718;7.328;2023-03-15T04:26:39;6.50;55.40
37456;DHT22;23316;50.718;7.328;2023-03-15T04:29:09;6.50;55.40
37456;DHT22;23316;50.718;7.328;2023-03-15T04:31:37;6.50;55.40
37456;DHT22;23316;50.718;7.328;2023-03-15T04:34:04;6.50;55.50
37456;DHT22;23316;50.718;7.328;2023-03-15T04:36:31;6.50;55.50
37456;DHT22;23316;50.718;7.328;2023-03-15T04:38:58;6.50;55.50
37456;DHT22;23316;50.718;7.328;2023-03-15T04:41:30;6.50;55.50
37456;DHT22;23316;50.718;7.328;2023-03-15T04:43:59;6.50;55.60
37456;DHT22;23316;50.718;7.328;2023-03-15T04:46:28;6.50;55.60
37456;DHT22;23316;50.718;7.328;2023-03-15T04:48:55;6.50;55.60
37456;DHT22;23316;50.718;7.328;2023-03-15T04:51:23;6.50;55.60
37456;DHT22;23316;50.718;7.328;2023-03-15T04:53:50;6.50;55.70
37456;DHT22;23316;50.718;7.328;2023-03-15T04:56:17;6.50;55.70
37456;DHT22;23316;50.718;7.328;2023-03-15T04:58:45;6.50;55.70
37456;DHT22;23316;50.718;7.328;2023-03-15T05:01:12;6.50;55.70
37456;DHT22;23316;50.718;7.328;2023-03-15T05:03:41;6.50;55.80
37456;DHT22;23316;50.718;7.328;2023-03-15T05:06:08;6.50;55.90
37456;DHT22;23316;50.718;7.328;2023-03-15T05:08:36;6.50;55.90
37456;DHT22;23316;50.718;7.328;2023-03-15T05:11:04;6.50;55.90
37456;DHT22;23316;50.718;7.328;2023-03-15T05:13:31;6.50;55.90
37456;DHT22;23316;50.718;7.328;2023-03-15T05:15:58;6.50;56.00
37456;DHT22;23316;50.718;7.328;2023-03-15T05:18:25;6.50;56.00
37456;DHT22;23316;50.718;7.328;2023-03-15T05:20:54;6.50;56.00
37456;DHT22;23316;50.718;7.328;2023-03-15T05:23:22;6.50;56.10
37456;DHT22;23316;50.718;7.328;2023-03-15T05:25:50;6.60;56.10
37456;DHT22;23316;50.718;7.328;2023-03-15T05:28:19;6.50;56.20
37456;DHT22;23316;50.718;7.328;2023-03-15T05:30:47;6.50;56.10
37456;DHT22;23316;50.718;7.328;2023-03-15T05:33:14;6.50;56.20
37456;DHT22;23316;50.718;7.328;2023-03-15T05:35:42;6.50;56.20
37456;DHT22;23316;50.718;7.328;2023-03-15T05:38:11;6.50;56.20
37456;DHT22;23316;50.718;7.328;2023-03-15T05:40:39;6.40;56.30
37456;DHT22;23316;50.718;7.328;2023-03-15T05:43:07;6.50;56.30
37456;DHT22;23316;50.718;7.328;2023-03-15T05:45:34;6.50;56.40
37456;DHT22;23316;50.718;7.328;2023-03-15T05:48:02;6.40;56.40
37456;DHT22;23316;50.718;7.328;2023-03-15T05:50:30;6.40;56.40
37456;DHT22;23316;50.718;7.328;2023-03-15T05:52:58;6.40;56.50
37456;DHT22;23316;50.718;7.328;2023-03-15T05:55:26;6.40;56.60
37456;DHT22;23316;50.718;7.328;2023-03-15T05:57:53;6.40;56.60
37456;DHT22;23316;50.718;7.328;2023-03-15T06:00:21;6.30;56.60
37456;DHT22;23316;50.718;7.328;2023-03-15T06:02:48;6.30;56.60
37456;DHT22;23316;50.718;7.328;2023-03-15T06:05:16;6.30;56.80
37456;DHT22;23316;50.718;7.328;2023-03-15T06:07:43;6.30;56.80
37456;DHT22;23316;50.718;7.328;2023-03-15T06:10:11;6.20;56.90
37456;DHT22;23316;50.718;7.328;2023-03-15T06:12:40;6.20;57.00
37456;DHT22;23316;50.718;7.328;2023-03-15T06:15:08;6.20;57.00
37456;DHT22;23316;50.718;7.328;2023-03-15T06:17:36;6.20;57.10
37456;DHT22;23316;50.718;7.328;2023-03-15T06:20:04;6.20;57.20
37456;DHT22;23316;50.718;7.328;2023-03-15T06:22:31;6.20;57.30
37456;DHT22;23316;50.718;7.328;2023-03-15T06:24:58;6.10;57.30
37456;DHT22;23316;50.718;7.328;2023-03-15T06:27:26;6.10;57.30
37456;DHT22;23316;50.718;7.328;2023-03-15T06:29:54;6.10;57.40
37456;DHT22;23316;50.718;7.328;2023-03-15T06:32:22;6.10;57.40
37456;DHT22;23316;50.718;7.328;2023-03-15T06:34:49;6.10;57.50
37456;DHT22;23316;50.718;7.328;2023-03-15T06:37:16;6.10;57.60
37456;DHT22;23316;50.718;7.328;2023-03-15T06:39:44;6.10;57.60
37456;DHT22;23316;50.718;7.328;2023-03-15T06:42:13;6.20;57.70
37456;DHT22;23316;50.718;7.328;2023-03-15T06:44:42;6.20;57.70
37456;DHT22;23316;50.718;7.328;2023-03-15T06:47:13;6.20;57.70
37456;DHT22;23316;50.718;7.328;2023-03-15T06:49:42;6.10;57.70
37456;DHT22;23316;50.718;7.328;2023-03-15T06:52:11;6.20;57.70
37456;DHT22;23316;50.718;7.328;2023-03-15T06:54:40;6.10;57.70
37456;DHT22;23316;50.718;7.328;2023-03-15T06:57:10;6.20;57.80
37456;DHT22;23316;50.718;7.328;2023-03-15T06:59:39;6.20;57.80
37456;DHT22;23316;50.718;7.328;2023-03-15T07:02:14;6.20;57.90
37456;DHT22;23316;50.718;7.328;2023-03-15T07:04:41;6.20;57.80
37456;DHT22;23316;50.718;7.328;2023-03-15T07:07:09;6.20;57.90
37456;DHT22;23316;50.718;7.328;2023-03-15T07:09:37;6.10;57.90
37456;DHT22;23316;50.718;7.328;2023-03-15T07:12:04;6.10;57.90
37456;DHT22;23316;50.718;7.328;2023-03-15T07:14:32;6.10;57.90
37456;DHT22;23316;50.718;7.328;2023-03-15T07:17:00;6.10;58.00
37456;DHT22;23316;50.718;7.328;2023-03-15T07:19:28;6.10;58.10
37456;DHT22;23316;50.718;7.328;2023-03-15T07:21:55;6.10;58.10
37456;DHT22;23316;50.718;7.328;2023-03-15T07:24:23;6.10;58.20
37456;DHT22;23316;50.718;7.328;2023-03-15T07:26:50;6.00;58.20
37456;DHT22;23316;50.718;7.328;2023-03-15T07:29:21;6.00;58.80
37456;DHT22;23316;50.718;7.328;2023-03-15T07:31:48;6.00;58.30
37456;DHT22;23316;50.718;7.328;2023-03-15T07:34:15;6.00;58.40
37456;DHT22;23316;50.718;7.328;2023-03-15T07:36:44;6.00;58.40
37456;DHT22;23316;50.718;7.328;2023-03-15T07:39:12;6.00;58.50
37456;DHT22;23316;50.718;7.328;2023-03-15T07:41:39;6.00;58.50
37456;DHT22;23316;50.718;7.328;2023-03-15T07:44:06;6.00;58.50
37456;DHT22;23316;50.718;7.328;2023-03-15T07:46:34;5.90;58.50
37456;DHT22;23316;50.718;7.328;2023-03-15T07:49:01;5.90;58.60
37456;DHT22;23316;50.718;7.328;2023-03-15T07:51:28;5.90;58.70
37456;DHT22;23316;50.718;7.328;2023-03-15T07:53:57;5.80;59.20
37456;DHT22;23316;50.718;7.328;2023-03-15T07:56:24;5.80;58.90
37456;DHT22;23316;50.718;7.328;2023-03-15T07:58:51;5.80;59.50
37456;DHT22;23316;50.718;7.328;2023-03-15T08:01:19;5.80;59.10
37456;DHT22;23316;50.718;7.328;2023-03-15T08:03:46;5.80;59.40
37456;DHT22;23316;50.718;7.328;2023-03-15T08:06:14;5.80;59.50
37456;DHT22;23316;50.718;7.328;2023-03-15T08:08:41;5.80;59.70
37456;DHT22;23316;50.718;7.328;2023-03-15T08:11:09;5.90;59.80
37456;DHT22;23316;50.718;7.328;2023-03-15T08:13:37;6.00;59.80
37456;DHT22;23316;50.718;7.328;2023-03-15T08:16:04;6.00;59.80
37456;DHT22;23316;50.718;7.328;2023-03-15T08:18:32;6.10;59.70
37456;DHT22;23316;50.718;7.328;2023-03-15T08:20:59;6.10;59.60
37456;DHT22;23316;50.718;7.328;2023-03-15T08:23:26;6.10;59.30
37456;DHT22;23316;50.718;7.328;2023-03-15T08:25:54;6.10;59.20
37456;DHT22;23316;50.718;7.328;2023-03-15T08:28:23;6.10;59.10
37456;DHT22;23316;50.718;7.328;2023-03-15T08:30:50;6.10;59.10
37456;DHT22;23316;50.718;7.328;2023-03-15T08:33:17;6.10;59.10
37456;DHT22;23316;50.718;7.328;2023-03-15T08:35:45;6.10;59.20
37456;DHT22;23316;50.718;7.328;2023-03-15T08:38:12;6.10;59.20
37456;DHT22;23316;50.718;7.328;2023-03-15T08:40:39;6.10;59.30
37456;DHT22;23316;50.718;7.328;2023-03-15T08:43:07;6.00;59.10
37456;DHT22;23316;50.718;7.328;2023-03-15T08:45:36;6.00;59.20
37456;DHT22;23316;50.718;7.328;2023-03-15T08:48:03;6.00;59.40
37456;DHT22;23316;50.718;7.328;2023-03-15T08:50:31;6.00;59.50
37456;DHT22;23316;50.718;7.328;2023-03-15T08:52:58;6.00;59.50
37456;DHT22;23316;50.718;7.328;2023-03-15T08:55:26;5.90;59.60
37456;DHT22;23316;50.718;7.328;2023-03-15T08:57:53;5.90;59.80
37456;DHT22;23316;50.718;7.328;2023-03-15T09:00:21;5.90;59.80
37456;DHT22;23316;50.718;7.328;2023-03-15T09:02:50;5.90;60.00
37456;DHT22;23316;50.718;7.328;2023-03-15T09:05:18;5.80;60.10
37456;DHT22;23316;50.718;7.328;2023-03-15T09:07:47;5.80;60.30
37456;DHT22;23316;50.718;7.328;2023-03-15T09:12:43;5.80;60.40
37456;DHT22;23316;50.718;7.328;2023-03-15T09:15:11;5.80;60.50
37456;DHT22;23316;50.718;7.328;2023-03-15T09:17:38;5.90;60.80
37456;DHT22;23316;50.718;7.328;2023-03-15T09:20:11;5.90;60.80
37456;DHT22;23316;50.718;7.328;2023-03-15T09:22:39;5.90;60.30
37456;DHT22;23316;50.718;7.328;2023-03-15T09:25:07;6.00;60.30
37456;DHT22;23316;50.718;7.328;2023-03-15T09:27:36;6.00;60.40
37456;DHT22;23316;50.718;7.328;2023-03-15T09:30:03;6.10;60.30
37456;DHT22;23316;50.718;7.328;2023-03-15T09:32:31;6.10;60.20
37456;DHT22;23316;50.718;7.328;2023-03-15T09:35:01;6.10;60.20
37456;DHT22;23316;50.718;7.328;2023-03-15T09:37:30;6.20;60.10
37456;DHT22;23316;50.718;7.328;2023-03-15T09:39:57;6.20;60.00
37456;DHT22;23316;50.718;7.328;2023-03-15T09:42:30;6.20;59.90
37456;DHT22;23316;50.718;7.328;2023-03-15T09:45:07;6.20;59.80
37456;DHT22;23316;50.718;7.328;2023-03-15T09:47:41;6.30;60.60
37456;DHT22;23316;50.718;7.328;2023-03-15T09:50:19;6.30;60.00
37456;DHT22;23316;50.718;7.328;2023-03-15T09:52:53;6.40;60.00
37456;DHT22;23316;50.718;7.328;2023-03-15T09:55:23;6.40;59.90
37456;DHT22;23316;50.718;7.328;2023-03-15T09:57:53;6.50;59.90
37456;DHT22;23316;50.718;7.328;2023-03-15T10:00:26;6.50;59.90
37456;DHT22;23316;50.718;7.328;2023-03-15T10:02:58;6.60;59.90
37456;DHT22;23316;50.718;7.328;2023-03-15T10:05:34;6.60;59.70
37456;DHT22;23316;50.718;7.328;2023-03-15T10:08:08;6.70;59.70
37456;DHT22;23316;50.718;7.328;2023-03-15T10:10:39;6.70;59.60
37456;DHT22;23316;50.718;7.328;2023-03-15T10:13:21;6.80;59.50
37456;DHT22;23316;50.718;7.328;2023-03-15T10:16:00;6.80;59.50
37456;DHT22;23316;50.718;7.328;2023-03-15T10:18:41;6.90;59.40
37456;DHT22;23316;50.718;7.328;2023-03-15T10:21:16;6.90;59.80
37456;DHT22;23316;50.718;7.328;2023-03-15T10:23:53;7.00;59.10
37456;DHT22;23316;50.718;7.328;2023-03-15T10:26:23;7.00;58.80
37456;DHT22;23316;50.718;7.328;2023-03-15T10:28:52;7.00;58.70
37456;DHT22;23316;50.718;7.328;2023-03-15T10:31:23;7.00;58.60
37456;DHT22;23316;50.718;7.328;2023-03-15T10:33:52;7.10;58.90
37456;DHT22;23316;50.718;7.328;2023-03-15T10:36:22;7.10;58.90
37456;DHT22;23316;50.718;7.328;2023-03-15T10:38:51;7.10;58.80
37456;DHT22;23316;50.718;7.328;2023-03-15T10:41:29;7.10;58.60
37456;DHT22;23316;50.718;7.328;2023-03-15T10:43:59;7.10;58.80
37456;DHT22;23316;50.718;7.328;2023-03-15T10:46:26;7.10;58.80
37456;DHT22;23316;50.718;7.328;2023-03-15T10:48:57;7.20;58.90
37456;DHT22;23316;50.718;7.328;2023-03-15T10:51:27;7.10;58.70
37456;DHT22;23316;50.718;7.328;2023-03-15T10:53:58;7.20;58.60
37456;DHT22;23316;50.718;7.328;2023-03-15T10:56:27;7.20;58.10
37456;DHT22;23316;50.718;7.328;2023-03-15T10:58:57;7.20;57.80
37456;DHT22;23316;50.718;7.328;2023-03-15T11:01:26;7.20;57.60
37456;DHT22;23316;50.718;7.328;2023-03-15T11:04:08;7.20;57.40
37456;DHT22;23316;50.718;7.328;2023-03-15T11:06:42;7.10;57.40
37456;DHT22;23316;50.718;7.328;2023-03-15T11:09:12;7.20;57.40
37456;DHT22;23316;50.718;7.328;2023-03-15T11:11:52;7.20;57.10
37456;DHT22;23316;50.718;7.328;2023-03-15T11:14:19;7.20;56.70
37456;DHT22;23316;50.718;7.328;2023-03-15T11:16:48;7.20;56.70
37456;DHT22;23316;50.718;7.328;2023-03-15T11:19:17;7.20;56.70
37456;DHT22;23316;50.718;7.328;2023-03-15T11:21:48;7.20;56.00
37456;DHT22;23316;50.718;7.328;2023-03-15T11:24:24;7.30;56.00
37456;DHT22;23316;50.718;7.328;2023-03-15T11:26:53;7.30;56.20
37456;DHT22;23316;50.718;7.328;2023-03-15T11:29:23;7.40;56.80
37456;DHT22;23316;50.718;7.328;2023-03-15T11:31:52;7.40;57.10
37456;DHT22;23316;50.718;7.328;2023-03-15T11:34:37;7.40;57.30
37456;DHT22;23316;50.718;7.328;2023-03-15T11:37:13;7.50;57.40
37456;DHT22;23316;50.718;7.328;2023-03-15T11:39:46;7.60;57.30
37456;DHT22;23316;50.718;7.328;2023-03-15T11:42:21;7.70;56.90
37456;DHT22;23316;50.718;7.328;2023-03-15T11:44:51;7.80;56.40
37456;DHT22;23316;50.718;7.328;2023-03-15T11:47:28;7.80;55.90
37456;DHT22;23316;50.718;7.328;2023-03-15T11:49:57;7.90;55.00
37456;DHT22;23316;50.718;7.328;2023-03-15T11:52:26;7.90;55.30
37456;DHT22;23316;50.718;7.328;2023-03-15T11:54:57;8.00;55.50
37456;DHT22;23316;50.718;7.328;2023-03-15T11:57:36;8.00;54.40
37456;DHT22;23316;50.718;7.328;2023-03-15T12:03:36;8.00;53.40
37456;DHT22;23316;50.718;7.328;2023-03-15T12:09:39;8.10;52.50
37456;DHT22;23316;50.718;7.328;2023-03-15T12:12:37;8.20;51.90
37456;DHT22;23316;50.718;7.328;2023-03-15T12:18:02;8.30;53.10
37456;DHT22;23316;50.718;7.328;2023-03-15T12:20:34;8.30;53.20
37456;DHT22;23316;50.718;7.328;2023-03-15T12:23:20;8.40;52.40
37456;DHT22;23316;50.718;7.328;2023-03-15T12:25:52;8.50;52.70
37456;DHT22;23316;50.718;7.328;2023-03-15T12:28:25;8.60;53.00
37456;DHT22;23316;50.718;7.328;2023-03-15T12:30:55;8.70;53.00
37456;DHT22;23316;50.718;7.328;2023-03-15T12:33:24;8.70;52.80
37456;DHT22;23316;50.718;7.328;2023-03-15T12:35:58;8.80;52.80
37456;DHT22;23316;50.718;7.328;2023-03-15T12:38:34;8.90;51.60
37456;DHT22;23316;50.718;7.328;2023-03-15T12:41:06;8.90;51.20
37456;DHT22;23316;50.718;7.328;2023-03-15T12:43:38;9.00;51.50
37456;DHT22;23316;50.718;7.328;2023-03-15T12:46:06;9.00;51.70
37456;DHT22;23316;50.718;7.328;2023-03-15T12:48:33;9.00;50.70
37456;DHT22;23316;50.718;7.328;2023-03-15T12:51:09;9.00;49.90
37456;DHT22;23316;50.718;7.328;2023-03-15T12:53:49;9.00;49.60
37456;DHT22;23316;50.718;7.328;2023-03-15T12:56:39;8.90;48.60
37456;DHT22;23316;50.718;7.328;2023-03-15T12:59:15;8.90;49.10
37456;DHT22;23316;50.718;7.328;2023-03-15T13:01:44;8.90;49.30
37456;DHT22;23316;50.718;7.328;2023-03-15T13:04:12;8.90;48.30
37456;DHT22;23316;50.718;7.328;2023-03-15T13:06:55;8.80;48.10
37456;DHT22;23316;50.718;7.328;2023-03-15T13:09:43;8.80;48.30
37456;DHT22;23316;50.718;7.328;2023-03-15T13:12:20;8.90;49.20
37456;DHT22;23316;50.718;7.328;2023-03-15T13:14:55;8.90;49.80
37456;DHT22;23316;50.718;7.328;2023-03-15T13:17:34;8.90;49.90
37456;DHT22;23316;50.718;7.328;2023-03-15T13:20:17;8.90;49.30
37456;DHT22;23316;50.718;7.328;2023-03-15T13:22:54;8.90;48.90
37456;DHT22;23316;50.718;7.328;2023-03-15T13:25:29;8.90;49.20
37456;DHT22;23316;50.718;7.328;2023-03-15T13:28:00;8.90;49.60
37456;DHT22;23316;50.718;7.328;2023-03-15T13:30:36;8.90;49.80
37456;DHT22;23316;50.718;7.328;2023-03-15T13:33:07;8.90;50.00
37456;DHT22;23316;50.718;7.328;2023-03-15T13:35:41;9.00;50.30
37456;DHT22;23316;50.718;7.328;2023-03-15T13:38:22;9.00;50.40
37456;DHT22;23316;50.718;7.328;2023-03-15T13:40:50;9.00;50.40
37456;DHT22;23316;50.718;7.328;2023-03-15T13:43:17;9.00;50.50
37456;DHT22;23316;50.718;7.328;2023-03-15T13:45:46;9.10;50.50
37456;DHT22;23316;50.718;7.328;2023-03-15T13:48:14;9.10;50.40
37456;DHT22;23316;50.718;7.328;2023-03-15T13:50:41;9.10;50.40
37456;DHT22;23316;50.718;7.328;2023-03-15T13:53:13;9.10;50.20
37456;DHT22;23316;50.718;7.328;2023-03-15T13:55:48;9.10;50.10
37456;DHT22;23316;50.718;7.328;2023-03-15T13:58:17;9.10;50.20
37456;DHT22;23316;50.718;7.328;2023-03-15T14:00:47;9.20;50.20
37456;DHT22;23316;50.718;7.328;2023-03-15T14:03:19;9.20;50.20
37456;DHT22;23316;50.718;7.328;2023-03-15T14:05:50;9.20;50.20
37456;DHT22;23316;50.718;7.328;2023-03-15T14:08:20;9.20;50.10
37456;DHT22;23316;50.718;7.328;2023-03-15T14:11:10;9.20;49.60
37456;DHT22;23316;50.718;7.328;2023-03-15T14:13:49;9.20;48.50
37456;DHT22;23316;50.718;7.328;2023-03-15T14:16:31;9.20;48.70
37456;DHT22;23316;50.718;7.328;2023-03-15T14:19:14;9.20;49.10
37456;DHT22;23316;50.718;7.328;2023-03-15T14:21:42;9.20;49.30
37456;DHT22;23316;50.718;7.328;2023-03-15T14:24:14;9.20;49.40
37456;DHT22;23316;50.718;7.328;2023-03-15T14:26:43;9.20;49.10
37456;DHT22;23316;50.718;7.328;2023-03-15T14:29:16;9.30;48.00
37456;DHT22;23316;50.718;7.328;2023-03-15T14:31:48;9.30;48.20
37456;DHT22;23316;50.718;7.328;2023-03-15T14:34:22;9.30;48.50
37456;DHT22;23316;50.718;7.328;2023-03-15T14:36:51;9.30;48.00
37456;DHT22;23316;50.718;7.328;2023-03-15T14:39:25;9.30;47.60
37456;DHT22;23316;50.718;7.328;2023-03-15T14:41:53;9.30;46.80
37456;DHT22;23316;50.718;7.328;2023-03-15T14:44:21;9.30;46.80
37456;DHT22;23316;50.718;7.328;2023-03-15T14:46:49;9.30;46.50
37456;DHT22;23316;50.718;7.328;2023-03-15T14:49:22;9.30;46.20
37456;DHT22;23316;50.718;7.328;2023-03-15T14:51:52;9.30;46.00
37456;DHT22;23316;50.718;7.328;2023-03-15T14:54:21;9.40;45.30
37456;DHT22;23316;50.718;7.328;2023-03-15T14:56:48;9.40;45.30
37456;DHT22;23316;50.718;7.328;2023-03-15T14:59:16;9.40;45.30
37456;DHT22;23316;50.718;7.328;2023-03-15T15:01:49;9.40;45.70
37456;DHT22;23316;50.718;7.328;2023-03-15T15:04:17;9.40;45.90
37456;DHT22;23316;50.718;7.328;2023-03-15T15:06:45;9.40;45.50
37456;DHT22;23316;50.718;7.328;2023-03-15T15:09:20;9.40;45.50
37456;DHT22;23316;50.718;7.328;2023-03-15T15:11:49;9.40;45.60
37456;DHT22;23316;50.718;7.328;2023-03-15T15:14:17;9.50;46.20
37456;DHT22;23316;50.718;7.328;2023-03-15T15:16:44;9.50;45.20
37456;DHT22;23316;50.718;7.328;2023-03-15T15:19:14;9.50;45.40
37456;DHT22;23316;50.718;7.328;2023-03-15T15:21:41;9.50;45.90
37456;DHT22;23316;50.718;7.328;2023-03-15T15:24:12;9.60;46.10
37456;DHT22;23316;50.718;7.328;2023-03-15T15:26:41;9.60;45.70
37456;DHT22;23316;50.718;7.328;2023-03-15T15:29:11;9.60;45.00
37456;DHT22;23316;50.718;7.328;2023-03-15T15:31:39;9.60;45.40
37456;DHT22;23316;50.718;7.328;2023-03-15T15:34:07;9.70;45.20
37456;DHT22;23316;50.718;7.328;2023-03-15T15:36:38;9.70;44.30
37456;DHT22;23316;50.718;7.328;2023-03-15T15:39:20;9.70;44.20
37456;DHT22;23316;50.718;7.328;2023-03-15T15:41:48;9.70;44.50
37456;DHT22;23316;50.718;7.328;2023-03-15T15:44:17;9.70;45.10
37456;DHT22;23316;50.718;7.328;2023-03-15T15:46:44;9.70;45.40
37456;DHT22;23316;50.718;7.328;2023-03-15T15:49:12;9.70;44.80
37456;DHT22;23316;50.718;7.328;2023-03-15T15:51:42;9.70;44.30
37456;DHT22;23316;50.718;7.328;2023-03-15T15:54:13;9.80;44.30
37456;DHT22;23316;50.718;7.328;2023-03-15T15:56:46;9.80;45.20
37456;DHT22;23316;50.718;7.328;2023-03-15T15:59:15;9.80;45.30
37456;DHT22;23316;50.718;7.328;2023-03-15T16:01:43;9.80;45.60
37456;DHT22;23316;50.718;7.328;2023-03-15T16:04:11;9.90;45.90
37456;DHT22;23316;50.718;7.328;2023-03-15T16:06:40;9.90;45.00
37456;DHT22;23316;50.718;7.328;2023-03-15T16:09:11;9.90;44.80
37456;DHT22;23316;50.718;7.328;2023-03-15T16:11:39;9.90;45.10
37456;DHT22;23316;50.718;7.328;2023-03-15T16:14:09;10.00;45.40